Time;durP1;ratioP1;P1;durP2;ratioP2;P2;SDS_P1;SDS_P2;PMS_P1;PMS_P2;Temp;Humidity;BMP_temperature;BMP_pressure;BME280_temperature;BME280_humidity;BME280_pressure;Samples;Min_cycle;Max_cycle;Signal;HPM_P1;HPM_P2
2022/04/20 00:02:24;;;;;;;5.40;4.17;;;3.60;99.90;;;;;;5077315;28;20222;-74
2022/04/20 00:04:53;;;;;;;4.63;4.13;;;3.50;99.90;;;;;;5077328;28;20212;-76
2022/04/20 00:07:20;;;;;;;4.27;3.87;;;3.30;99.90;;;;;;5077514;28;20201;-75
2022/04/20 00:09:48;;;;;;;5.40;4.50;;;3.30;99.90;;;;;;5076645;28;20602;-75
2022/04/20 00:12:15;;;;;;;8.37;4.67;;;3.50;99.90;;;;;;5076930;28;20258;-74
2022/04/20 00:14:42;;;;;;;6.23;4.03;;;3.70;99.90;;;;;;5076979;28;20288;-75
2022/04/20 00:17:08;;;;;;;4.30;3.90;;;3.60;99.90;;;;;;5076370;28;20656;-75
2022/04/20 00:19:35;;;;;;;5.47;3.70;;;3.60;99.90;;;;;;5078530;28;20197;-75
2022/04/20 00:22:01;;;;;;;6.87;4.00;;;3.40;99.90;;;;;;5077564;28;20238;-75
2022/04/20 00:24:28;;;;;;;6.23;4.50;;;3.40;99.90;;;;;;5076408;28;20253;-75
2022/04/20 00:26:56;;;;;;;5.50;4.50;;;3.20;99.90;;;;;;5076773;28;20195;-75
2022/04/20 00:29:23;;;;;;;9.17;4.40;;;3.10;99.90;;;;;;5076607;28;20718;-75
2022/04/20 00:31:49;;;;;;;5.20;4.13;;;3.00;99.90;;;;;;5077952;28;20262;-75
2022/04/20 00:34:16;;;;;;;7.63;4.47;;;3.00;99.90;;;;;;5078653;28;20283;-75
2022/04/20 00:36:43;;;;;;;5.90;4.73;;;2.90;99.90;;;;;;5077949;28;20227;-75
2022/04/20 00:39:09;;;;;;;5.57;4.47;;;2.80;99.90;;;;;;5078797;28;20197;-75
2022/04/20 00:41:36;;;;;;;6.83;4.80;;;2.80;99.90;;;;;;5080089;28;20197;-75
2022/04/20 00:44:06;;;;;;;5.60;4.77;;;3.00;99.90;;;;;;5084631;28;20599;-76
2022/04/20 00:46:33;;;;;;;7.90;4.97;;;2.90;99.90;;;;;;5084735;28;20220;-75
2022/04/20 00:49:00;;;;;;;6.63;4.80;;;2.60;99.90;;;;;;5084686;28;20204;-75
2022/04/20 00:51:27;;;;;;;5.57;4.43;;;2.40;99.90;;;;;;5083923;28;20197;-75
2022/04/20 00:53:58;;;;;;;7.57;4.40;;;2.40;99.90;;;;;;5082530;28;20684;-76
2022/04/20 00:56:24;;;;;;;8.13;5.20;;;2.50;99.90;;;;;;5082668;28;20197;-76
2022/04/20 00:58:52;;;;;;;8.00;4.50;;;2.80;99.90;;;;;;5078146;28;20197;-75
2022/04/20 01:01:20;;;;;;;5.17;4.47;;;2.80;99.90;;;;;;5077690;28;20197;-75
2022/04/20 01:03:46;;;;;;;6.47;4.83;;;2.70;99.90;;;;;;5077796;28;20205;-75
2022/04/20 01:06:13;;;;;;;8.03;5.03;;;2.70;99.90;;;;;;5077510;28;20672;-75
2022/04/20 01:08:40;;;;;;;7.57;4.80;;;2.40;99.90;;;;;;5077143;28;20255;-75
2022/04/20 01:11:06;;;;;;;9.73;5.10;;;2.20;99.90;;;;;;5077441;28;20243;-75
2022/04/20 01:13:33;;;;;;;7.00;4.87;;;2.20;99.90;;;;;;5076779;28;20679;-75
2022/04/20 01:15:59;;;;;;;8.03;5.10;;;2.30;99.90;;;;;;5077121;28;20664;-75
2022/04/20 01:18:28;;;;;;;7.77;5.40;;;2.40;99.90;;;;;;5077152;28;20200;-75
2022/04/20 01:20:56;;;;;;;7.93;5.03;;;2.60;99.90;;;;;;5076686;28;20199;-75
2022/04/20 01:23:23;;;;;;;7.17;5.20;;;2.20;99.90;;;;;;5076846;28;20221;-75
2022/04/20 01:25:50;;;;;;;6.73;4.93;;;2.10;99.90;;;;;;5076809;28;20227;-75
2022/04/20 01:28:17;;;;;;;6.90;5.40;;;2.10;99.90;;;;;;5077144;28;20201;-75
2022/04/20 01:30:44;;;;;;;8.07;5.23;;;1.90;99.90;;;;;;5076983;28;20557;-75
2022/04/20 01:33:10;;;;;;;6.37;4.90;;;1.80;99.90;;;;;;5077152;28;20656;-75
2022/04/20 01:35:37;;;;;;;7.10;5.50;;;1.90;99.90;;;;;;5076524;28;20243;-75
2022/04/20 01:38:05;;;;;;;7.17;5.47;;;1.80;99.90;;;;;;5076854;28;20648;-75
2022/04/20 01:40:32;;;;;;;8.63;5.90;;;1.90;99.90;;;;;;5077287;28;20714;-75
2022/04/20 01:42:59;;;;;;;6.97;5.33;;;1.80;99.90;;;;;;5076301;28;20631;-75
2022/04/20 01:45:25;;;;;;;6.57;5.20;;;1.70;99.90;;;;;;5076248;28;20201;-75
2022/04/20 01:47:52;;;;;;;5.57;5.07;;;1.80;99.90;;;;;;5075938;28;20196;-75
2022/04/20 01:50:19;;;;;;;8.20;5.40;;;1.60;99.90;;;;;;5075736;28;20201;-75
2022/04/20 01:52:48;;;;;;;6.93;5.53;;;1.40;99.90;;;;;;5076594;28;20201;-74
2022/04/20 01:55:17;;;;;;;7.67;5.60;;;1.30;99.90;;;;;;5076380;28;20278;-75
2022/04/20 01:57:43;;;;;;;8.40;5.83;;;1.20;99.90;;;;;;5076123;28;20219;-75
2022/04/20 02:00:11;;;;;;;6.40;5.53;;;1.10;99.90;;;;;;5076522;28;20664;-75
2022/04/20 02:02:38;;;;;;;5.93;5.33;;;1.00;99.90;;;;;;5075805;28;20560;-75
2022/04/20 02:05:07;;;;;;;8.37;6.00;;;0.90;99.90;;;;;;5077254;28;20205;-74
2022/04/20 02:07:34;;;;;;;11.27;5.70;;;1.00;99.90;;;;;;5076850;28;20250;-75
2022/04/20 02:10:00;;;;;;;6.90;5.47;;;0.80;99.90;;;;;;5076458;28;20678;-74
2022/04/20 02:12:28;;;;;;;6.70;5.90;;;0.70;99.90;;;;;;5077195;28;20648;-74
2022/04/20 02:14:55;;;;;;;9.50;6.33;;;0.70;99.90;;;;;;5079543;28;20626;-75
2022/04/20 02:17:22;;;;;;;6.60;5.63;;;0.50;99.90;;;;;;5084469;28;20193;-75
2022/04/20 02:19:49;;;;;;;6.67;5.97;;;0.60;99.90;;;;;;5084378;28;20254;-74
2022/04/20 02:22:16;;;;;;;6.93;5.93;;;0.70;99.90;;;;;;5084200;28;20626;-75
2022/04/20 02:24:43;;;;;;;12.60;6.73;;;0.60;99.90;;;;;;5080823;28;20197;-75
2022/04/20 02:27:10;;;;;;;12.20;6.10;;;0.50;99.90;;;;;;5075853;28;20197;-75
2022/04/20 02:29:39;;;;;;;6.97;5.87;;;0.50;99.90;;;;;;5076414;28;20666;-75
2022/04/20 02:32:07;;;;;;;12.73;7.17;;;0.70;99.90;;;;;;5076668;28;20201;-75
2022/04/20 02:34:34;;;;;;;11.43;7.07;;;0.90;99.90;;;;;;5076941;28;20225;-75
2022/04/20 02:37:00;;;;;;;8.03;6.50;;;0.90;99.90;;;;;;5076633;28;20227;-75
2022/04/20 02:39:27;;;;;;;7.57;6.37;;;0.80;99.90;;;;;;5076673;28;20217;-75
2022/04/20 02:41:54;;;;;;;7.90;6.07;;;0.90;99.90;;;;;;5076435;28;20197;-75
2022/04/20 02:44:21;;;;;;;7.00;6.10;;;1.10;99.90;;;;;;5076042;28;20235;-75
2022/04/20 02:46:49;;;;;;;7.43;6.40;;;0.90;99.90;;;;;;5075177;28;20262;-75
2022/04/20 02:49:17;;;;;;;7.87;6.17;;;0.70;99.90;;;;;;5076253;28;20197;-75
2022/04/20 02:51:43;;;;;;;10.27;6.07;;;0.50;99.90;;;;;;5075952;28;20563;-76
2022/04/20 02:54:10;;;;;;;7.90;6.47;;;0.60;99.90;;;;;;5076269;28;20688;-75
2022/04/20 02:56:37;;;;;;;9.00;6.20;;;0.70;99.90;;;;;;5076642;28;20254;-75
2022/04/20 02:59:03;;;;;;;8.97;5.90;;;0.50;99.90;;;;;;5075716;28;20204;-75
2022/04/20 03:01:30;;;;;;;8.27;6.00;;;0.40;99.90;;;;;;5075875;28;20197;-74
2022/04/20 03:03:59;;;;;;;7.67;6.23;;;0.40;99.90;;;;;;5074861;28;20212;-75
2022/04/20 03:06:27;;;;;;;7.97;6.27;;;0.50;99.90;;;;;;5075271;28;20196;-74
2022/04/20 03:08:54;;;;;;;8.47;6.13;;;0.80;99.90;;;;;;5075250;28;20197;-75
2022/04/20 03:11:20;;;;;;;8.23;6.03;;;0.80;99.90;;;;;;5075203;28;20648;-74
2022/04/20 03:13:47;;;;;;;9.37;6.10;;;0.70;99.90;;;;;;5075432;28;20203;-75
2022/04/20 03:16:14;;;;;;;8.10;6.10;;;0.60;99.90;;;;;;5075262;28;20223;-75
2022/04/20 03:18:41;;;;;;;7.63;5.90;;;0.80;99.90;;;;;;5075476;28;20251;-75
2022/04/20 03:21:09;;;;;;;8.93;6.03;;;0.60;99.90;;;;;;5075130;28;20246;-75
2022/04/20 03:23:36;;;;;;;7.10;5.77;;;0.40;99.90;;;;;;5074996;28;20228;-75
2022/04/20 03:26:03;;;;;;;6.97;5.97;;;0.20;99.90;;;;;;5074646;28;20205;-75
2022/04/20 03:28:30;;;;;;;11.00;6.20;;;0.10;99.90;;;;;;5075179;28;20648;-75
2022/04/20 03:30:57;;;;;;;9.07;6.37;;;0.10;99.90;;;;;;5074628;28;20243;-75
2022/04/20 03:33:23;;;;;;;6.93;5.70;;;0.10;99.90;;;;;;5074381;28;20197;-75
2022/04/20 03:35:50;;;;;;;7.83;6.23;;;0.00;99.90;;;;;;5077562;28;20221;-75
2022/04/20 03:38:18;;;;;;;7.90;6.10;;;0.00;99.90;;;;;;5078405;28;20201;-75
2022/04/20 03:40:46;;;;;;;9.47;6.83;;;-0.10;99.90;;;;;;5077857;28;20200;-75
2022/04/20 03:43:13;;;;;;;9.70;5.97;;;-0.10;99.90;;;;;;5077950;28;20672;-74
2022/04/20 03:45:40;;;;;;;8.40;6.63;;;0.00;99.90;;;;;;5078260;28;20196;-75
2022/04/20 03:48:06;;;;;;;10.37;6.43;;;-0.10;99.90;;;;;;5077940;28;20266;-75
2022/04/20 03:50:34;;;;;;;9.13;6.53;;;-0.10;99.90;;;;;;5077825;28;20322;-75
2022/04/20 03:53:00;;;;;;;9.43;6.77;;;0.00;99.90;;;;;;5077498;28;20560;-75
2022/04/20 03:55:29;;;;;;;8.77;6.63;;;0.20;99.90;;;;;;5077575;28;20237;-75
2022/04/20 03:57:55;;;;;;;11.83;7.10;;;0.10;99.90;;;;;;5078226;28;20197;-75
2022/04/20 04:00:24;;;;;;;9.80;6.40;;;-0.10;99.90;;;;;;5077403;28;20258;-75
2022/04/20 04:02:50;;;;;;;9.97;6.53;;;-0.10;99.90;;;;;;5077901;28;20210;-75
2022/04/20 04:05:17;;;;;;;14.50;7.50;;;0.10;99.90;;;;;;5077527;28;20663;-75
2022/04/20 04:07:44;;;;;;;10.37;6.93;;;0.00;99.90;;;;;;5078026;28;20254;-74
2022/04/20 04:10:10;;;;;;;11.83;7.60;;;-0.20;99.90;;;;;;5077489;28;20201;-74
2022/04/20 04:12:38;;;;;;;9.23;7.50;;;-0.10;99.90;;;;;;5077146;28;20227;-73
2022/04/20 04:15:07;;;;;;;10.30;7.47;;;0.10;99.90;;;;;;5077622;28;20282;-75
2022/04/20 04:17:34;;;;;;;9.83;7.70;;;0.20;99.90;;;;;;5078428;28;20555;-75
2022/04/20 04:20:01;;;;;;;8.73;7.20;;;0.10;99.90;;;;;;5078719;28;20197;-74
2022/04/20 04:22:27;;;;;;;11.77;8.10;;;0.00;99.90;;;;;;5082481;28;20239;-75
2022/04/20 04:24:56;;;;;;;8.07;7.27;;;0.00;99.90;;;;;;5086953;28;20205;-75
2022/04/20 04:27:23;;;;;;;11.63;7.97;;;0.20;99.90;;;;;;5084404;28;20208;-74
2022/04/20 04:29:51;;;;;;;12.40;8.50;;;0.20;99.90;;;;;;5083642;28;20208;-74
2022/04/20 04:32:18;;;;;;;11.23;8.10;;;0.10;99.90;;;;;;5084994;28;20204;-75
2022/04/20 04:34:45;;;;;;;15.57;8.70;;;-0.10;99.90;;;;;;5086697;28;20229;-75
2022/04/20 04:37:14;;;;;;;10.20;8.53;;;-0.10;99.90;;;;;;5084050;28;20204;-75
2022/04/20 04:39:40;;;;;;;12.60;9.17;;;0.10;99.90;;;;;;5080780;28;20229;-74
2022/04/20 04:42:08;;;;;;;9.30;8.27;;;0.50;99.90;;;;;;5077469;28;20193;-75
2022/04/20 04:44:34;;;;;;;8.90;7.70;;;0.60;99.90;;;;;;5077089;28;20254;-75
2022/04/20 04:49:47;;;;;;;12.27;7.83;;;0.50;99.90;;;;;;5076358;28;20606;-75
2022/04/20 04:52:14;;;;;;;11.80;7.90;;;0.30;99.90;;;;;;5076530;28;20196;-75
2022/04/20 04:54:41;;;;;;;11.47;8.37;;;0.20;99.90;;;;;;5075895;28;20225;-75
2022/04/20 04:57:08;;;;;;;10.47;8.07;;;0.20;99.90;;;;;;5076010;28;20197;-75
2022/04/20 04:59:36;;;;;;;11.90;8.00;;;0.20;99.90;;;;;;5076534;28;20197;-75
2022/04/20 05:02:04;;;;;;;18.90;15.67;;;0.10;99.90;;;;;;5076088;28;20200;-75
2022/04/20 05:04:31;;;;;;;14.27;11.87;;;0.20;99.90;;;;;;5076556;28;20258;-74
2022/04/20 05:06:58;;;;;;;10.50;7.60;;;0.20;99.90;;;;;;5076097;28;20197;-75
2022/04/20 05:09:24;;;;;;;12.00;7.53;;;0.30;99.90;;;;;;5076139;28;20197;-74
2022/04/20 05:11:51;;;;;;;10.77;7.60;;;0.40;99.90;;;;;;5076144;28;20262;-74
2022/04/20 05:14:18;;;;;;;11.83;7.63;;;0.40;99.90;;;;;;5083611;28;20193;-75
2022/04/20 05:16:44;;;;;;;8.27;6.93;;;0.70;99.90;;;;;;5085703;28;20201;-75
2022/04/20 05:19:12;;;;;;;10.43;8.23;;;0.70;99.90;;;;;;5085891;28;20204;-75
2022/04/20 05:21:39;;;;;;;8.80;7.47;;;0.90;99.90;;;;;;5086583;28;20227;-75
2022/04/20 05:24:06;;;;;;;10.73;8.20;;;0.90;99.90;;;;;;5078280;28;20197;-76
2022/04/20 05:26:33;;;;;;;10.37;7.67;;;1.10;99.90;;;;;;5076663;28;20205;-75
2022/04/20 05:28:59;;;;;;;10.90;8.00;;;1.20;99.90;;;;;;5076390;28;20201;-76
2022/04/20 05:31:26;;;;;;;12.50;7.57;;;1.40;99.90;;;;;;5076114;28;20282;-76
2022/04/20 05:33:53;;;;;;;8.53;6.83;;;1.50;99.90;;;;;;5075754;28;20254;-75
2022/04/20 05:36:21;;;;;;;10.23;7.50;;;1.60;99.90;;;;;;5075641;28;20229;-75
2022/04/20 05:41:41;;;;;;;9.03;7.27;;;1.80;99.90;;;;;;5075288;28;20200;-75
2022/04/20 05:44:08;;;;;;;9.43;7.37;;;1.80;99.90;;;;;;5075890;28;20201;-75
2022/04/20 05:46:35;;;;;;;15.80;6.97;;;1.90;99.90;;;;;;5075737;28;20311;-75
2022/04/20 05:49:02;;;;;;;9.17;7.30;;;2.00;99.90;;;;;;5075222;28;20193;-75
2022/04/20 05:51:30;;;;;;;14.70;7.20;;;2.20;99.90;;;;;;5075193;28;20204;-75
2022/04/20 05:53:56;;;;;;;13.80;7.70;;;2.40;99.90;;;;;;5073953;28;20193;-75
2022/04/20 05:56:23;;;;;;;9.57;7.20;;;2.60;99.90;;;;;;5074828;28;20271;-75
2022/04/20 05:58:52;;;;;;;7.73;6.83;;;2.80;99.90;;;;;;5074347;28;20733;-74
2022/04/20 06:01:19;;;;;;;10.33;6.50;;;3.00;99.90;;;;;;5076887;28;20198;-78
2022/04/20 06:03:46;;;;;;;10.87;6.60;;;3.20;99.90;;;;;;5078079;28;20606;-78
2022/04/20 06:06:13;;;;;;;9.93;7.20;;;3.30;99.90;;;;;;5078370;28;20228;-76
2022/04/20 06:08:41;;;;;;;11.43;7.20;;;3.40;99.90;;;;;;5077155;28;20197;-78
2022/04/20 06:11:08;;;;;;;11.63;7.87;;;3.60;99.90;;;;;;5076580;28;20259;-78
2022/04/20 06:13:35;;;;;;;10.67;7.20;;;3.70;99.90;;;;;;5074446;28;20664;-76
2022/04/20 06:16:04;;;;;;;8.07;6.73;;;3.80;99.90;;;;;;5073683;28;20217;-76
2022/04/20 06:18:31;;;;;;;7.77;6.77;;;3.90;99.90;;;;;;5073379;28;20198;-76
2022/04/20 06:20:58;;;;;;;7.57;6.80;;;4.00;99.90;;;;;;5073546;28;20195;-74
2022/04/20 06:23:24;;;;;;;7.30;6.47;;;4.10;99.90;;;;;;5072907;28;20245;-75
2022/04/20 06:25:55;;;;;;;7.90;6.33;;;4.30;99.90;;;;;;5073012;28;20185;-75
2022/04/20 06:28:24;;;;;;;7.73;6.33;;;4.40;99.90;;;;;;5073088;28;20190;-76
2022/04/20 06:30:52;;;;;;;7.40;6.60;;;4.50;99.90;;;;;;5072838;28;20710;-76
2022/04/20 06:33:21;;;;;;;8.27;6.40;;;4.60;99.90;;;;;;5074099;28;20205;-77
2022/04/20 06:35:48;;;;;;;9.40;6.30;;;4.70;99.90;;;;;;5072472;28;20227;-76
2022/04/20 06:38:15;;;;;;;8.17;6.60;;;4.80;99.90;;;;;;5074167;28;20246;-77
2022/04/20 06:40:42;;;;;;;10.30;7.53;;;4.80;99.90;;;;;;5074577;28;20507;-81
2022/04/20 06:43:10;;;;;;;12.27;7.57;;;4.90;99.90;;;;;;5096086;28;20223;-83
2022/04/20 06:45:37;;;;;;;10.73;7.23;;;5.10;99.90;;;;;;5076040;28;20196;-78
2022/04/20 06:48:04;;;;;;;11.27;7.33;;;5.10;99.90;;;;;;5073572;28;20254;-77
2022/04/20 06:50:30;;;;;;;7.83;6.53;;;5.10;99.90;;;;;;5073583;28;20201;-79
2022/04/20 06:58:32;;;;;;;8.27;7.00;;;5.40;99.90;;;;;;5070189;28;20246;-81
2022/04/20 07:00:59;;;;;;;8.83;6.57;;;5.40;99.90;;;;;;5071386;28;20637;-77
2022/04/20 07:03:26;;;;;;;9.97;6.40;;;5.40;99.90;;;;;;5073062;28;20606;-77
2022/04/20 07:05:53;;;;;;;10.07;6.80;;;5.60;99.90;;;;;;5072939;28;20246;-81
2022/04/20 07:08:22;;;;;;;8.10;7.17;;;5.70;99.90;;;;;;5072781;28;20232;-77
2022/04/20 07:10:49;;;;;;;8.17;6.67;;;5.80;99.90;;;;;;5072402;28;20612;-77
2022/04/20 07:13:16;;;;;;;10.60;7.53;;;6.00;99.90;;;;;;5071573;28;20623;-77
2022/04/20 07:15:44;;;;;;;7.23;6.53;;;6.10;99.90;;;;;;5071848;28;20212;-75
2022/04/20 07:18:11;;;;;;;11.00;7.03;;;6.30;99.90;;;;;;5071950;28;20193;-82
2022/04/20 07:20:38;;;;;;;8.37;6.60;;;6.30;99.90;;;;;;5069429;28;20640;-80
2022/04/20 07:23:05;;;;;;;8.20;6.63;;;6.40;99.90;;;;;;5072469;28;20217;-77
2022/04/20 07:25:32;;;;;;;9.07;6.20;;;6.60;99.90;;;;;;5072464;28;20189;-77
2022/04/20 07:27:59;;;;;;;8.53;6.60;;;6.70;99.90;;;;;;5072865;28;20644;-78
2022/04/20 07:30:27;;;;;;;8.43;6.00;;;6.80;99.90;;;;;;5072781;28;20193;-78
2022/04/20 07:32:55;;;;;;;8.30;5.53;;;7.00;99.90;;;;;;5073172;28;20221;-77
2022/04/20 07:35:22;;;;;;;6.73;5.30;;;7.20;99.90;;;;;;5072869;28;20225;-78
2022/04/20 07:37:48;;;;;;;5.67;5.03;;;7.50;99.90;;;;;;5072999;28;20321;-78
2022/04/20 07:40:15;;;;;;;7.93;5.10;;;7.70;99.90;;;;;;5072870;28;20193;-77
2022/04/20 07:42:42;;;;;;;5.70;5.20;;;7.90;99.90;;;;;;5072877;28;20250;-78
2022/04/20 07:45:10;;;;;;;7.03;5.40;;;7.90;99.90;;;;;;5072597;28;20193;-78
2022/04/20 07:47:37;;;;;;;5.60;5.00;;;7.90;99.90;;;;;;5072794;28;20193;-78
2022/04/20 07:50:21;;;;;;;8.43;5.57;;;8.00;99.90;;;;;;5072622;28;20196;-78
2022/04/20 07:52:50;;;;;;;6.43;5.63;;;8.10;99.90;;;;;;5072416;28;20564;-78
2022/04/20 07:55:18;;;;;;;9.97;5.80;;;8.20;99.90;;;;;;5072407;28;20229;-77
2022/04/20 07:57:45;;;;;;;10.10;5.70;;;8.40;99.90;;;;;;5072492;28;20797;-77
2022/04/20 08:00:14;;;;;;;5.97;5.17;;;8.50;99.90;;;;;;5072889;28;20198;-78
2022/04/20 08:02:41;;;;;;;6.40;5.70;;;8.70;99.90;;;;;;5072440;28;20293;-75
2022/04/20 08:05:10;;;;;;;5.53;5.00;;;8.90;99.90;;;;;;5073991;28;20197;-77
2022/04/20 08:07:37;;;;;;;5.47;4.50;;;9.10;99.90;;;;;;5074583;28;20196;-76
2022/04/20 08:10:06;;;;;;;7.80;5.50;;;9.20;99.90;;;;;;5074770;28;20200;-77
2022/04/20 08:12:36;;;;;;;4.70;3.97;;;9.40;99.90;;;;;;5075446;28;20224;-77
2022/04/20 08:15:03;;;;;;;5.30;4.47;;;9.50;96.50;;;;;;5075104;28;20196;-77
2022/04/20 08:17:30;;;;;;;4.60;4.20;;;9.60;91.80;;;;;;5076617;28;20284;-77
2022/04/20 08:19:57;;;;;;;7.20;4.30;;;9.80;88.80;;;;;;5074691;28;20220;-76
2022/04/20 08:22:25;;;;;;;4.77;4.30;;;9.90;79.90;;;;;;5076034;28;20224;-76
2022/04/20 08:24:52;;;;;;;7.87;4.10;;;10.20;75.80;;;;;;5075996;28;20201;-76
2022/04/20 08:27:20;;;;;;;4.63;3.90;;;10.10;74.60;;;;;;5075742;28;20545;-76
2022/04/20 08:29:47;;;;;;;4.40;4.00;;;10.30;64.50;;;;;;5075771;28;20226;-77
2022/04/20 08:32:14;;;;;;;6.07;3.83;;;10.40;58.30;;;;;;5075400;28;20232;-76
2022/04/20 08:34:42;;;;;;;4.70;4.03;;;10.60;58.60;;;;;;5075548;28;20208;-77
2022/04/20 08:37:09;;;;;;;10.37;4.20;;;10.70;55.00;;;;;;5075640;28;20220;-77
2022/04/20 08:39:39;;;;;;;8.80;4.13;;;10.80;53.40;;;;;;5075701;28;20197;-77
2022/04/20 08:42:07;;;;;;;5.97;3.73;;;10.80;50.20;;;;;;5075524;28;20200;-77
2022/04/20 08:44:37;;;;;;;5.60;3.60;;;10.90;48.80;;;;;;5074474;28;20551;-77
2022/04/20 08:47:05;;;;;;;4.17;3.60;;;11.10;47.90;;;;;;5075398;28;20205;-78
2022/04/20 08:49:32;;;;;;;3.80;3.40;;;11.10;46.40;;;;;;5075192;28;20676;-77
2022/04/20 08:54:48;;;;;;;10.23;3.40;;;11.50;41.00;;;;;;5075361;28;20200;-77
2022/04/20 08:57:19;;;;;;;5.10;3.67;;;11.50;39.50;;;;;;5075276;28;20224;-77
2022/04/20 08:59:48;;;;;;;3.90;3.60;;;11.60;39.50;;;;;;5074254;28;20205;-77
2022/04/20 09:02:15;;;;;;;3.93;3.53;;;11.80;39.70;;;;;;5075536;28;20205;-77
2022/04/20 09:04:43;;;;;;;4.30;3.80;;;12.20;37.50;;;;;;5075229;28;20200;-77
2022/04/20 09:07:11;;;;;;;4.00;3.70;;;12.20;37.10;;;;;;5075021;28;20197;-77
2022/04/20 09:09:38;;;;;;;3.80;3.47;;;12.10;36.90;;;;;;5075210;28;20412;-77
2022/04/20 09:12:11;;;;;;;4.17;3.77;;;12.60;35.80;;;;;;5074861;28;20224;-77
2022/04/20 09:14:40;;;;;;;4.27;3.87;;;13.00;35.20;;;;;;5074116;28;20283;-78
2022/04/20 09:17:10;;;;;;;7.43;4.40;;;12.90;34.20;;;;;;5075017;28;20273;-77
2022/04/20 09:19:37;;;;;;;6.33;4.23;;;12.90;33.50;;;;;;5074999;28;20201;-77
2022/04/20 09:22:17;;;;;;;5.33;4.00;;;13.00;32.30;;;;;;5074626;28;20229;-77
2022/04/20 09:25:03;;;;;;;5.30;3.83;;;13.10;30.80;;;;;;5074956;28;20250;-77
2022/04/20 09:27:34;;;;;;;4.33;3.93;;;13.40;31.00;;;;;;5074778;28;20232;-77
2022/04/20 09:30:02;;;;;;;5.03;4.63;;;13.40;30.60;;;;;;5075204;28;20215;-77
2022/04/20 09:32:37;;;;;;;8.53;4.10;;;13.40;29.60;;;;;;5074772;28;20201;-77
2022/04/20 09:35:06;;;;;;;4.80;4.40;;;13.60;30.00;;;;;;5074811;28;20220;-77
2022/04/20 09:37:33;;;;;;;5.07;4.37;;;14.00;29.50;;;;;;5074654;28;20224;-77
2022/04/20 09:40:01;;;;;;;5.10;4.60;;;14.10;28.70;;;;;;5074896;28;20205;-77
2022/04/20 09:42:28;;;;;;;6.37;3.83;;;14.30;28.60;;;;;;5074653;28;20564;-77
2022/04/20 09:44:59;;;;;;;4.70;4.10;;;14.40;27.80;;;;;;5074473;28;20251;-77
2022/04/20 09:50:16;;;;;;;5.03;4.53;;;14.90;26.10;;;;;;5074918;28;20200;-77
2022/04/20 09:52:44;;;;;;;4.45;4.05;;;15.00;26.70;;;;;;5080570;28;20197;-77
2022/04/20 09:55:13;;;;;;;4.57;4.18;;;15.00;25.90;;;;;;5079264;28;20209;-78
2022/04/20 09:57:40;;;;;;;5.88;4.15;;;15.20;24.80;;;;;;5078514;28;20220;-77
2022/04/20 10:00:10;;;;;;;6.68;4.47;;;15.00;24.30;;;;;;5074336;28;20252;-79
2022/04/20 10:02:38;;;;;;;6.35;4.38;;;15.20;24.80;;;;;;5074161;28;20295;-78
2022/04/20 10:05:06;;;;;;;4.78;4.30;;;15.30;24.90;;;;;;5073927;28;20680;-78
2022/04/20 10:07:33;;;;;;;8.05;3.92;;;15.60;24.30;;;;;;5074010;28;20201;-78
2022/04/20 10:09:59;;;;;;;4.70;4.30;;;15.90;24.30;;;;;;5074255;28;20196;-79
2022/04/20 10:12:30;;;;;;;4.95;4.45;;;16.10;24.20;;;;;;5074110;28;20204;-77
2022/04/20 10:17:49;;;;;;;5.45;4.03;;;16.70;22.90;;;;;;5073585;28;20321;-77
2022/04/20 10:20:16;;;;;;;4.95;4.07;;;16.90;21.10;;;;;;5073953;28;20197;-77
2022/04/20 10:22:44;;;;;;;5.15;3.60;;;17.00;21.20;;;;;;5073520;28;20225;-77
2022/04/20 10:25:13;;;;;;;3.83;3.53;;;17.60;20.60;;;;;;5073995;28;20201;-77
2022/04/20 10:27:51;;;;;;;3.97;3.65;;;17.60;18.70;;;;;;5073818;28;20197;-77
2022/04/20 10:30:25;;;;;;;3.92;3.63;;;17.70;18.70;;;;;;5072592;28;20224;-77
2022/04/20 10:32:59;;;;;;;3.58;3.28;;;17.90;18.70;;;;;;5073674;28;20332;-78
2022/04/20 10:35:25;;;;;;;3.88;3.58;;;18.40;18.20;;;;;;5073379;28;20257;-77
2022/04/20 10:38:08;;;;;;;3.97;3.33;;;18.70;16.50;;;;;;5073562;28;20765;-77
2022/04/20 10:40:35;;;;;;;4.15;3.75;;;19.10;16.30;;;;;;5073455;28;20201;-77
2022/04/20 10:43:21;;;;;;;3.88;3.58;;;19.40;15.60;;;;;;5072961;28;20201;-77
2022/04/20 10:46:11;;;;;;;4.30;3.90;;;19.30;15.20;;;;;;5073174;28;20197;-77
2022/04/20 10:48:55;;;;;;;5.43;3.90;;;19.40;15.30;;;;;;5070601;28;20682;-79
2022/04/20 10:51:24;;;;;;;4.30;3.70;;;19.90;14.80;;;;;;5073176;28;20201;-77
2022/04/20 10:53:52;;;;;;;5.20;3.70;;;20.60;14.60;;;;;;5073391;28;20715;-77
2022/04/20 10:56:20;;;;;;;5.45;3.47;;;21.50;13.60;;;;;;5073040;28;20256;-78
2022/04/20 10:59:07;;;;;;;9.32;3.30;;;21.30;13.10;;;;;;5072865;28;20656;-78
2022/04/20 11:02:07;;;;;;;3.80;3.50;;;21.40;12.40;;;;;;5073242;28;20193;-78
2022/04/20 11:04:39;;;;;;;3.92;3.15;;;21.50;11.30;;;;;;5073460;28;20185;-78
2022/04/20 11:07:26;;;;;;;3.60;3.30;;;21.40;11.70;;;;;;5073505;28;20288;-78
2022/04/20 11:10:05;;;;;;;4.30;3.05;;;21.70;11.10;;;;;;5072990;28;20197;-78
2022/04/20 11:18:39;;;;;;;3.88;3.45;;;22.80;10.10;;;;;;5073021;28;20204;-79
2022/04/20 11:21:16;;;;;;;3.40;3.10;;;23.10;10.40;;;;;;5073342;28;20200;-78
2022/04/20 11:24:01;;;;;;;5.53;3.47;;;23.40;9.80;;;;;;5073308;28;20235;-78
2022/04/20 11:26:29;;;;;;;3.75;3.40;;;23.50;9.30;;;;;;5073295;28;20205;-77
2022/04/20 11:28:57;;;;;;;6.90;3.15;;;23.90;8.80;;;;;;5072923;28;20204;-78
2022/04/20 11:31:24;;;;;;;3.78;3.22;;;24.40;8.20;;;;;;5072907;28;20254;-78
2022/04/20 11:33:52;;;;;;;3.78;3.47;;;24.50;8.00;;;;;;5072967;28;20196;-78
2022/04/20 11:36:21;;;;;;;4.05;3.58;;;24.40;7.70;;;;;;5072879;28;20193;-78
2022/04/20 11:38:48;;;;;;;3.60;3.30;;;24.70;7.70;;;;;;5071529;28;20196;-78
2022/04/20 11:41:18;;;;;;;4.80;4.00;;;24.00;6.80;;;;;;5072335;28;20246;-78
2022/04/20 11:43:45;;;;;;;4.35;3.95;;;23.10;7.30;;;;;;5072761;28;20197;-78
2022/04/20 11:46:13;;;;;;;3.67;3.38;;;23.50;8.50;;;;;;5072448;28;20209;-78
2022/04/20 11:48:50;;;;;;;3.50;3.20;;;24.30;7.30;;;;;;5072923;28;20229;-78
2022/04/20 11:51:23;;;;;;;5.20;3.83;;;24.20;6.40;;;;;;5072705;28;20211;-78
2022/04/20 11:53:50;;;;;;;3.90;3.60;;;24.50;6.20;;;;;;5072928;28;20201;-78
2022/04/20 11:56:17;;;;;;;3.28;2.97;;;24.90;6.40;;;;;;5074908;28;20802;-78
2022/04/20 11:58:49;;;;;;;3.58;3.28;;;25.40;5.70;;;;;;5076547;28;20574;-79
2022/04/20 12:01:16;;;;;;;6.72;3.10;;;25.90;4.70;;;;;;5076816;28;20224;-78
2022/04/20 12:03:44;;;;;;;4.43;3.05;;;25.90;4.70;;;;;;5076453;28;20556;-78
2022/04/20 12:06:12;;;;;;;3.40;3.10;;;25.80;4.50;;;;;;5076611;28;20242;-79
2022/04/20 12:08:41;;;;;;;3.85;3.55;;;26.20;4.40;;;;;;5076248;28;20228;-79
2022/04/20 12:11:08;;;;;;;3.70;3.40;;;26.80;4.10;;;;;;5076043;28;20216;-78
2022/04/20 12:13:36;;;;;;;4.05;3.45;;;26.70;3.80;;;;;;5076328;28;20196;-78
2022/04/20 12:16:05;;;;;;;3.70;3.40;;;26.60;4.00;;;;;;5076649;28;20197;-79
2022/04/20 12:18:35;;;;;;;4.63;3.40;;;27.00;3.90;;;;;;5076106;28;20579;-79
2022/04/20 12:21:02;;;;;;;4.78;3.30;;;27.40;3.50;;;;;;5076621;28;20592;-78
2022/04/20 12:23:34;;;;;;;3.33;3.13;;;26.80;3.20;;;;;;5075914;28;20228;-79
2022/04/20 12:26:04;;;;;;;4.95;3.35;;;26.70;2.50;;;;;;5075911;28;20273;-79
2022/04/20 12:28:43;;;;;;;4.13;3.72;;;26.60;2.40;;;;;;5076012;28;20228;-80
2022/04/20 12:31:12;;;;;;;3.55;3.25;;;26.90;2.30;;;;;;5078952;28;20598;-78
2022/04/20 12:33:39;;;;;;;3.45;3.15;;;25.50;1.20;;;;;;5080203;28;20196;-78
2022/04/20 12:36:08;;;;;;;4.15;3.42;;;26.50;2.60;;;;;;5079442;28;20197;-79
2022/04/20 12:38:45;;;;;;;5.55;3.15;;;25.80;2.80;;;;;;5083748;28;20200;-77
2022/04/20 12:41:43;;;;;;;3.42;3.13;;;26.90;2.70;;;;;;5088484;28;20192;-78
2022/04/20 12:44:39;;;;;;;3.60;3.30;;;27.50;1.80;;;;;;5087266;28;20209;-78
2022/04/20 12:47:35;;;;;;;3.70;3.40;;;26.90;1.50;;;;;;5076016;28;20588;-80
2022/04/20 12:50:18;;;;;;;4.72;3.33;;;27.30;1.80;;;;;;5075734;28;20303;-78
2022/04/20 12:52:56;;;;;;;3.60;3.30;;;28.20;1.70;;;;;;5075624;28;20204;-79
2022/04/20 12:55:24;;;;;;;3.47;3.10;;;28.30;1.80;;;;;;5075832;28;20206;-78
2022/04/20 13:03:36;;;;;;;9.15;4.10;;;28.90;1.80;;;;;;5075267;28;20272;-78
2022/04/20 13:06:10;;;;;;;3.90;3.60;;;26.20;3.70;;;;;;5075051;28;20200;-78
2022/04/20 13:08:37;;;;;;;4.45;3.90;;;27.50;2.60;;;;;;5075487;28;20319;-79
2022/04/20 13:11:04;;;;;;;4.63;3.92;;;28.30;2.70;;;;;;5075522;28;20193;-79
2022/04/20 13:13:32;;;;;;;4.15;3.85;;;27.90;3.00;;;;;;5075151;28;20203;-79
2022/04/20 13:15:59;;;;;;;4.45;4.03;;;28.40;3.00;;;;;;5075104;28;20648;-79
2022/04/20 13:18:26;;;;;;;7.30;4.25;;;28.80;2.40;;;;;;5074006;28;20597;-78
2022/04/20 13:20:53;;;;;;;6.13;3.85;;;29.10;2.00;;;;;;5075130;28;20671;-78
2022/04/20 13:23:19;;;;;;;3.83;3.53;;;29.20;1.10;;;;;;5074928;28;20225;-78
2022/04/20 13:28:32;;;;;;;5.13;4.30;;;29.90;1.00;;;;;;5075177;28;20926;-79
2022/04/20 13:30:58;;;;;;;6.68;4.32;;;30.70;1.00;;;;;;5075038;28;20254;-78
2022/04/20 13:33:25;;;;;;;5.47;3.78;;;30.40;1.00;;;;;;5074888;28;20620;-79
2022/04/20 13:35:53;;;;;;;4.78;4.35;;;30.10;1.10;;;;;;5074658;28;20655;-79